sensor_id;sensor_type;location;lat;lon;timestamp;temperature;humidity
43143;DHT22;28750;59.842;17.584;2022-10-13T00:00:46;5.70;99.90
43143;DHT22;28750;59.842;17.584;2022-10-13T00:03:13;5.60;99.90
43143;DHT22;28750;59.842;17.584;2022-10-13T00:05:42;5.50;99.90
43143;DHT22;28750;59.842;17.584;2022-10-13T00:08:10;5.60;99.90
43143;DHT22;28750;59.842;17.584;2022-10-13T00:10:39;5.70;99.90
43143;DHT22;28750;59.842;17.584;2022-10-13T00:13:07;5.80;99.90
43143;DHT22;28750;59.842;17.584;2022-10-13T00:15:39;5.80;99.90
43143;DHT22;28750;59.842;17.584;2022-10-13T00:18:06;6.00;99.90
43143;DHT22;28750;59.842;17.584;2022-10-13T00:20:34;5.90;99.90
43143;DHT22;28750;59.842;17.584;2022-10-13T00:23:01;5.90;99.90
43143;DHT22;28750;59.842;17.584;2022-10-13T00:25:28;5.90;99.90
43143;DHT22;28750;59.842;17.584;2022-10-13T00:27:55;5.80;99.90
43143;DHT22;28750;59.842;17.584;2022-10-13T00:30:22;6.00;99.90
43143;DHT22;28750;59.842;17.584;2022-10-13T00:32:49;6.10;99.90
43143;DHT22;28750;59.842;17.584;2022-10-13T00:35:16;6.10;99.90
43143;DHT22;28750;59.842;17.584;2022-10-13T00:37:43;6.00;99.90
43143;DHT22;28750;59.842;17.584;2022-10-13T00:40:10;6.00;99.90
43143;DHT22;28750;59.842;17.584;2022-10-13T00:42:40;6.00;99.90
43143;DHT22;28750;59.842;17.584;2022-10-13T00:45:14;6.00;99.90
43143;DHT22;28750;59.842;17.584;2022-10-13T00:47:52;6.00;99.90
43143;DHT22;28750;59.842;17.584;2022-10-13T00:50:24;5.90;99.90
43143;DHT22;28750;59.842;17.584;2022-10-13T00:52:54;5.80;99.90
43143;DHT22;28750;59.842;17.584;2022-10-13T00:55:25;5.90;99.90
43143;DHT22;28750;59.842;17.584;2022-10-13T00:57:54;5.90;99.90
43143;DHT22;28750;59.842;17.584;2022-10-13T01:00:23;5.90;99.90
43143;DHT22;28750;59.842;17.584;2022-10-13T01:02:51;5.90;99.90
43143;DHT22;28750;59.842;17.584;2022-10-13T01:05:19;5.80;99.90
43143;DHT22;28750;59.842;17.584;2022-10-13T01:07:48;6.00;99.90
43143;DHT22;28750;59.842;17.584;2022-10-13T01:13:11;6.00;99.90
43143;DHT22;28750;59.842;17.584;2022-10-13T01:18:47;5.90;99.90
43143;DHT22;28750;59.842;17.584;2022-10-13T01:21:34;6.10;99.90
43143;DHT22;28750;59.842;17.584;2022-10-13T01:24:41;6.00;99.90
43143;DHT22;28750;59.842;17.584;2022-10-13T01:38:42;5.80;99.90
43143;DHT22;28750;59.842;17.584;2022-10-13T01:41:22;5.90;99.90
43143;DHT22;28750;59.842;17.584;2022-10-13T01:44:14;5.80;99.90
43143;DHT22;28750;59.842;17.584;2022-10-13T01:46:44;5.80;99.90
43143;DHT22;28750;59.842;17.584;2022-10-13T01:49:15;5.80;99.90
43143;DHT22;28750;59.842;17.584;2022-10-13T01:51:43;5.80;99.90
43143;DHT22;28750;59.842;17.584;2022-10-13T01:54:10;5.90;99.90
43143;DHT22;28750;59.842;17.584;2022-10-13T01:56:37;5.90;99.90
43143;DHT22;28750;59.842;17.584;2022-10-13T01:59:11;5.80;99.90
43143;DHT22;28750;59.842;17.584;2022-10-13T02:09:26;5.90;99.90
43143;DHT22;28750;59.842;17.584;2022-10-13T02:12:15;6.10;99.90
43143;DHT22;28750;59.842;17.584;2022-10-13T02:14:45;6.20;99.90
43143;DHT22;28750;59.842;17.584;2022-10-13T02:17:13;6.00;99.90
43143;DHT22;28750;59.842;17.584;2022-10-13T02:19:40;6.10;99.90
43143;DHT22;28750;59.842;17.584;2022-10-13T02:22:09;6.10;99.90
43143;DHT22;28750;59.842;17.584;2022-10-13T02:24:37;6.10;99.90
43143;DHT22;28750;59.842;17.584;2022-10-13T02:27:05;6.20;99.90
43143;DHT22;28750;59.842;17.584;2022-10-13T02:29:32;6.30;99.90
43143;DHT22;28750;59.842;17.584;2022-10-13T02:31:59;6.30;99.90
43143;DHT22;28750;59.842;17.584;2022-10-13T02:34:26;6.40;99.90
43143;DHT22;28750;59.842;17.584;2022-10-13T02:36:53;6.50;99.90
43143;DHT22;28750;59.842;17.584;2022-10-13T02:39:20;6.60;99.90
43143;DHT22;28750;59.842;17.584;2022-10-13T02:41:47;6.60;99.90
43143;DHT22;28750;59.842;17.584;2022-10-13T02:44:15;6.60;99.90
43143;DHT22;28750;59.842;17.584;2022-10-13T02:46:42;6.50;99.90
43143;DHT22;28750;59.842;17.584;2022-10-13T02:49:09;6.50;99.90
43143;DHT22;28750;59.842;17.584;2022-10-13T02:51:36;6.50;99.90
43143;DHT22;28750;59.842;17.584;2022-10-13T02:54:03;6.60;99.90
43143;DHT22;28750;59.842;17.584;2022-10-13T02:56:30;6.70;99.90
43143;DHT22;28750;59.842;17.584;2022-10-13T02:58:57;6.70;99.90
43143;DHT22;28750;59.842;17.584;2022-10-13T03:01:24;6.80;99.90
43143;DHT22;28750;59.842;17.584;2022-10-13T03:03:50;6.60;99.90
43143;DHT22;28750;59.842;17.584;2022-10-13T03:06:17;6.90;99.90
43143;DHT22;28750;59.842;17.584;2022-10-13T03:08:45;6.80;99.90
43143;DHT22;28750;59.842;17.584;2022-10-13T03:11:11;6.80;99.90
43143;DHT22;28750;59.842;17.584;2022-10-13T03:13:38;6.60;99.90
43143;DHT22;28750;59.842;17.584;2022-10-13T03:16:06;6.60;99.90
43143;DHT22;28750;59.842;17.584;2022-10-13T03:18:34;6.50;99.90
43143;DHT22;28750;59.842;17.584;2022-10-13T03:21:03;6.60;99.90
43143;DHT22;28750;59.842;17.584;2022-10-13T03:23:31;6.60;99.90
43143;DHT22;28750;59.842;17.584;2022-10-13T03:25:59;6.70;99.90
43143;DHT22;28750;59.842;17.584;2022-10-13T03:28:26;6.80;99.90
43143;DHT22;28750;59.842;17.584;2022-10-13T03:31:02;6.80;99.90
43143;DHT22;28750;59.842;17.584;2022-10-13T03:33:29;6.90;99.90
43143;DHT22;28750;59.842;17.584;2022-10-13T03:36:01;6.90;99.90
43143;DHT22;28750;59.842;17.584;2022-10-13T03:38:30;6.90;99.90
43143;DHT22;28750;59.842;17.584;2022-10-13T03:41:07;6.80;99.90
43143;DHT22;28750;59.842;17.584;2022-10-13T03:43:34;6.80;99.90
43143;DHT22;28750;59.842;17.584;2022-10-13T03:46:03;6.80;99.90
43143;DHT22;28750;59.842;17.584;2022-10-13T03:48:31;6.80;99.90
43143;DHT22;28750;59.842;17.584;2022-10-13T03:50:59;6.70;99.90
43143;DHT22;28750;59.842;17.584;2022-10-13T03:53:26;6.90;99.90
43143;DHT22;28750;59.842;17.584;2022-10-13T03:55:55;6.90;99.90
43143;DHT22;28750;59.842;17.584;2022-10-13T03:58:23;6.80;99.90
43143;DHT22;28750;59.842;17.584;2022-10-13T04:00:53;6.90;99.90
43143;DHT22;28750;59.842;17.584;2022-10-13T04:03:20;7.00;99.90
43143;DHT22;28750;59.842;17.584;2022-10-13T04:05:47;6.90;99.90
43143;DHT22;28750;59.842;17.584;2022-10-13T04:08:14;7.00;99.90
43143;DHT22;28750;59.842;17.584;2022-10-13T04:10:41;6.80;99.90
43143;DHT22;28750;59.842;17.584;2022-10-13T04:13:08;7.00;99.90
43143;DHT22;28750;59.842;17.584;2022-10-13T04:15:39;6.90;99.90
43143;DHT22;28750;59.842;17.584;2022-10-13T04:18:07;6.80;99.90
43143;DHT22;28750;59.842;17.584;2022-10-13T04:20:40;6.80;99.90
43143;DHT22;28750;59.842;17.584;2022-10-13T04:23:07;6.90;99.90
43143;DHT22;28750;59.842;17.584;2022-10-13T04:25:35;6.90;99.90
43143;DHT22;28750;59.842;17.584;2022-10-13T04:28:06;6.90;99.90
43143;DHT22;28750;59.842;17.584;2022-10-13T04:30:34;7.00;99.90
43143;DHT22;28750;59.842;17.584;2022-10-13T04:33:01;7.10;99.90
43143;DHT22;28750;59.842;17.584;2022-10-13T04:35:28;7.10;99.90
43143;DHT22;28750;59.842;17.584;2022-10-13T04:37:55;7.10;99.90
43143;DHT22;28750;59.842;17.584;2022-10-13T04:40:23;7.30;99.90
43143;DHT22;28750;59.842;17.584;2022-10-13T04:42:51;7.10;99.90
43143;DHT22;28750;59.842;17.584;2022-10-13T04:45:18;7.00;99.90
43143;DHT22;28750;59.842;17.584;2022-10-13T04:47:45;7.00;99.90
43143;DHT22;28750;59.842;17.584;2022-10-13T04:50:12;7.10;99.90
43143;DHT22;28750;59.842;17.584;2022-10-13T04:52:38;7.20;99.90
43143;DHT22;28750;59.842;17.584;2022-10-13T04:55:06;7.20;99.90
43143;DHT22;28750;59.842;17.584;2022-10-13T04:57:33;7.20;99.90
43143;DHT22;28750;59.842;17.584;2022-10-13T05:00:00;7.20;99.90
43143;DHT22;28750;59.842;17.584;2022-10-13T05:02:28;7.30;99.90
43143;DHT22;28750;59.842;17.584;2022-10-13T05:04:55;7.40;99.90
43143;DHT22;28750;59.842;17.584;2022-10-13T05:07:22;7.30;99.90
43143;DHT22;28750;59.842;17.584;2022-10-13T05:09:50;7.30;99.90
43143;DHT22;28750;59.842;17.584;2022-10-13T05:12:17;7.30;99.90
43143;DHT22;28750;59.842;17.584;2022-10-13T05:14:44;7.30;99.90
43143;DHT22;28750;59.842;17.584;2022-10-13T05:17:10;7.30;99.90
43143;DHT22;28750;59.842;17.584;2022-10-13T05:19:37;7.40;99.90
43143;DHT22;28750;59.842;17.584;2022-10-13T05:22:04;7.30;99.90
43143;DHT22;28750;59.842;17.584;2022-10-13T05:24:31;7.40;99.90
43143;DHT22;28750;59.842;17.584;2022-10-13T05:27:08;7.40;99.90
43143;DHT22;28750;59.842;17.584;2022-10-13T05:29:35;7.40;99.90
43143;DHT22;28750;59.842;17.584;2022-10-13T05:32:03;7.40;99.90
43143;DHT22;28750;59.842;17.584;2022-10-13T05:34:30;7.40;99.90
43143;DHT22;28750;59.842;17.584;2022-10-13T05:36:59;7.30;99.90
43143;DHT22;28750;59.842;17.584;2022-10-13T05:39:26;7.40;99.90
43143;DHT22;28750;59.842;17.584;2022-10-13T05:41:53;7.50;99.90
43143;DHT22;28750;59.842;17.584;2022-10-13T05:44:20;7.50;99.90
43143;DHT22;28750;59.842;17.584;2022-10-13T05:46:48;7.50;99.90
43143;DHT22;28750;59.842;17.584;2022-10-13T05:49:15;7.50;99.90
43143;DHT22;28750;59.842;17.584;2022-10-13T05:51:46;7.50;99.90
43143;DHT22;28750;59.842;17.584;2022-10-13T05:54:18;7.40;99.90
43143;DHT22;28750;59.842;17.584;2022-10-13T05:59:54;7.50;99.90
43143;DHT22;28750;59.842;17.584;2022-10-13T06:02:23;7.50;99.90
43143;DHT22;28750;59.842;17.584;2022-10-13T06:04:54;7.60;99.90
43143;DHT22;28750;59.842;17.584;2022-10-13T06:07:22;7.60;99.90
43143;DHT22;28750;59.842;17.584;2022-10-13T06:09:50;7.60;99.90
43143;DHT22;28750;59.842;17.584;2022-10-13T06:12:17;7.60;99.90
43143;DHT22;28750;59.842;17.584;2022-10-13T06:14:44;7.60;99.90
43143;DHT22;28750;59.842;17.584;2022-10-13T06:17:11;7.60;99.90
43143;DHT22;28750;59.842;17.584;2022-10-13T06:19:38;7.60;99.90
43143;DHT22;28750;59.842;17.584;2022-10-13T06:22:06;7.60;99.90
43143;DHT22;28750;59.842;17.584;2022-10-13T06:24:33;7.70;99.90
43143;DHT22;28750;59.842;17.584;2022-10-13T06:27:00;7.70;99.90
43143;DHT22;28750;59.842;17.584;2022-10-13T06:29:27;7.80;99.90
43143;DHT22;28750;59.842;17.584;2022-10-13T06:31:54;8.00;99.90
43143;DHT22;28750;59.842;17.584;2022-10-13T06:34:21;8.00;99.90
43143;DHT22;28750;59.842;17.584;2022-10-13T06:36:48;8.10;99.90
43143;DHT22;28750;59.842;17.584;2022-10-13T06:39:15;8.10;99.90
43143;DHT22;28750;59.842;17.584;2022-10-13T06:41:42;8.10;99.90
43143;DHT22;28750;59.842;17.584;2022-10-13T06:44:09;8.20;99.90
43143;DHT22;28750;59.842;17.584;2022-10-13T06:46:36;8.20;99.90
43143;DHT22;28750;59.842;17.584;2022-10-13T06:49:03;8.20;99.90
43143;DHT22;28750;59.842;17.584;2022-10-13T06:51:30;8.20;99.90
43143;DHT22;28750;59.842;17.584;2022-10-13T06:53:56;8.20;99.90
43143;DHT22;28750;59.842;17.584;2022-10-13T06:56:24;8.30;99.90
43143;DHT22;28750;59.842;17.584;2022-10-13T06:58:51;8.30;99.90
43143;DHT22;28750;59.842;17.584;2022-10-13T07:01:18;8.40;99.90
43143;DHT22;28750;59.842;17.584;2022-10-13T07:03:48;8.50;99.90
43143;DHT22;28750;59.842;17.584;2022-10-13T07:06:15;8.50;99.90
43143;DHT22;28750;59.842;17.584;2022-10-13T07:08:43;8.60;99.90
43143;DHT22;28750;59.842;17.584;2022-10-13T07:11:12;8.60;99.90
43143;DHT22;28750;59.842;17.584;2022-10-13T07:13:40;8.70;99.90
43143;DHT22;28750;59.842;17.584;2022-10-13T07:16:08;8.70;99.90
43143;DHT22;28750;59.842;17.584;2022-10-13T07:18:35;8.80;99.90
43143;DHT22;28750;59.842;17.584;2022-10-13T07:21:03;8.90;99.90
43143;DHT22;28750;59.842;17.584;2022-10-13T07:23:31;8.90;99.90
43143;DHT22;28750;59.842;17.584;2022-10-13T07:25:58;9.00;99.90
43143;DHT22;28750;59.842;17.584;2022-10-13T07:28:26;9.00;99.90
43143;DHT22;28750;59.842;17.584;2022-10-13T07:30:53;9.00;99.90
43143;DHT22;28750;59.842;17.584;2022-10-13T07:33:20;9.20;99.90
43143;DHT22;28750;59.842;17.584;2022-10-13T07:35:47;9.30;99.90
43143;DHT22;28750;59.842;17.584;2022-10-13T07:38:14;9.30;99.90
43143;DHT22;28750;59.842;17.584;2022-10-13T07:40:41;9.40;99.90
43143;DHT22;28750;59.842;17.584;2022-10-13T07:43:11;9.40;99.90
43143;DHT22;28750;59.842;17.584;2022-10-13T07:45:38;9.40;99.90
43143;DHT22;28750;59.842;17.584;2022-10-13T07:48:05;9.40;99.90
43143;DHT22;28750;59.842;17.584;2022-10-13T07:50:32;9.40;99.90
43143;DHT22;28750;59.842;17.584;2022-10-13T07:52:59;9.50;99.90
43143;DHT22;28750;59.842;17.584;2022-10-13T07:55:26;9.50;99.90
43143;DHT22;28750;59.842;17.584;2022-10-13T07:57:53;9.50;99.90
43143;DHT22;28750;59.842;17.584;2022-10-13T08:00:20;9.50;99.90
43143;DHT22;28750;59.842;17.584;2022-10-13T08:02:50;9.50;99.90
43143;DHT22;28750;59.842;17.584;2022-10-13T08:05:17;9.60;99.90
43143;DHT22;28750;59.842;17.584;2022-10-13T08:07:44;9.70;99.90
43143;DHT22;28750;59.842;17.584;2022-10-13T08:10:11;9.80;99.90
43143;DHT22;28750;59.842;17.584;2022-10-13T08:12:39;9.90;99.90
43143;DHT22;28750;59.842;17.584;2022-10-13T08:15:06;9.90;99.90
43143;DHT22;28750;59.842;17.584;2022-10-13T08:17:34;10.00;99.90
43143;DHT22;28750;59.842;17.584;2022-10-13T08:20:02;10.00;99.90
43143;DHT22;28750;59.842;17.584;2022-10-13T08:22:30;10.00;99.90
43143;DHT22;28750;59.842;17.584;2022-10-13T08:24:59;10.00;99.90
43143;DHT22;28750;59.842;17.584;2022-10-13T08:27:27;10.00;99.90
43143;DHT22;28750;59.842;17.584;2022-10-13T08:29:55;10.10;99.90
43143;DHT22;28750;59.842;17.584;2022-10-13T08:32:22;10.10;99.90
43143;DHT22;28750;59.842;17.584;2022-10-13T08:34:49;10.10;99.90
43143;DHT22;28750;59.842;17.584;2022-10-13T08:37:18;10.20;99.90
43143;DHT22;28750;59.842;17.584;2022-10-13T08:39:46;10.30;99.90
43143;DHT22;28750;59.842;17.584;2022-10-13T08:42:19;10.40;99.90
43143;DHT22;28750;59.842;17.584;2022-10-13T08:44:53;10.60;99.90
43143;DHT22;28750;59.842;17.584;2022-10-13T08:48:16;10.80;99.90
43143;DHT22;28750;59.842;17.584;2022-10-13T08:50:26;11.10;99.90
43143;DHT22;28750;59.842;17.584;2022-10-13T08:53:13;11.20;99.90
43143;DHT22;28750;59.842;17.584;2022-10-13T08:58:28;11.20;99.90
43143;DHT22;28750;59.842;17.584;2022-10-13T09:01:13;11.10;99.90
43143;DHT22;28750;59.842;17.584;2022-10-13T09:06:55;11.20;99.90
43143;DHT22;28750;59.842;17.584;2022-10-13T09:09:24;11.20;99.90
43143;DHT22;28750;59.842;17.584;2022-10-13T09:11:51;11.10;99.90
43143;DHT22;28750;59.842;17.584;2022-10-13T09:16:49;11.50;99.90
43143;DHT22;28750;59.842;17.584;2022-10-13T09:19:30;11.60;36.30
43143;DHT22;28750;59.842;17.584;2022-10-13T09:22:29;11.80;1.00
43143;DHT22;28750;59.842;17.584;2022-10-13T09:27:50;11.60;1.00
43143;DHT22;28750;59.842;17.584;2022-10-13T09:30:38;11.70;12.70
43143;DHT22;28750;59.842;17.584;2022-10-13T09:35:42;11.50;66.20
43143;DHT22;28750;59.842;17.584;2022-10-13T09:38:17;11.50;99.90
43143;DHT22;28750;59.842;17.584;2022-10-13T09:43:56;11.60;99.90
43143;DHT22;28750;59.842;17.584;2022-10-13T09:46:27;11.60;1.00
43143;DHT22;28750;59.842;17.584;2022-10-13T09:49:05;11.70;99.90
43143;DHT22;28750;59.842;17.584;2022-10-13T09:51:39;11.80;99.90
43143;DHT22;28750;59.842;17.584;2022-10-13T09:56:58;12.40;99.90
43143;DHT22;28750;59.842;17.584;2022-10-13T09:59:36;12.50;99.90
43143;DHT22;28750;59.842;17.584;2022-10-13T10:04:41;12.40;99.90
43143;DHT22;28750;59.842;17.584;2022-10-13T10:07:10;12.30;99.90
43143;DHT22;28750;59.842;17.584;2022-10-13T10:09:45;12.50;99.90
43143;DHT22;28750;59.842;17.584;2022-10-13T10:12:17;12.50;98.90
43143;DHT22;28750;59.842;17.584;2022-10-13T10:14:45;12.60;99.90
43143;DHT22;28750;59.842;17.584;2022-10-13T10:22:54;12.30;21.40
43143;DHT22;28750;59.842;17.584;2022-10-13T10:25:29;12.40;27.70
43143;DHT22;28750;59.842;17.584;2022-10-13T10:37:18;12.60;95.90
43143;DHT22;28750;59.842;17.584;2022-10-13T10:40:34;12.50;1.00
43143;DHT22;28750;59.842;17.584;2022-10-13T10:45:39;12.40;99.90
43143;DHT22;28750;59.842;17.584;2022-10-13T10:48:20;12.60;99.90
43143;DHT22;28750;59.842;17.584;2022-10-13T10:50:52;12.60;1.00
43143;DHT22;28750;59.842;17.584;2022-10-13T10:55:59;12.60;99.90
43143;DHT22;28750;59.842;17.584;2022-10-13T10:59:01;12.70;99.90
43143;DHT22;28750;59.842;17.584;2022-10-13T11:01:39;12.60;99.90
43143;DHT22;28750;59.842;17.584;2022-10-13T11:06:50;12.80;99.90
43143;DHT22;28750;59.842;17.584;2022-10-13T11:15:28;13.30;1.00
43143;DHT22;28750;59.842;17.584;2022-10-13T11:17:58;13.30;1.00
43143;DHT22;28750;59.842;17.584;2022-10-13T11:25:42;13.90;1.00
43143;DHT22;28750;59.842;17.584;2022-10-13T11:30:54;13.80;99.90
43143;DHT22;28750;59.842;17.584;2022-10-13T11:39:24;13.00;99.90
43143;DHT22;28750;59.842;17.584;2022-10-13T11:42:16;13.10;99.90
43143;DHT22;28750;59.842;17.584;2022-10-13T11:44:58;13.20;99.90
43143;DHT22;28750;59.842;17.584;2022-10-13T11:48:04;13.20;99.90
43143;DHT22;28750;59.842;17.584;2022-10-13T11:56:32;13.30;99.90
43143;DHT22;28750;59.842;17.584;2022-10-13T11:58:59;13.80;99.90
43143;DHT22;28750;59.842;17.584;2022-10-13T12:01:26;13.80;99.90
43143;DHT22;28750;59.842;17.584;2022-10-13T12:03:53;13.80;1.00
43143;DHT22;28750;59.842;17.584;2022-10-13T12:08:51;13.60;99.90
43143;DHT22;28750;59.842;17.584;2022-10-13T12:11:29;13.30;99.90
43143;DHT22;28750;59.842;17.584;2022-10-13T12:13:59;13.20;99.90
43143;DHT22;28750;59.842;17.584;2022-10-13T12:16:28;13.20;99.90
43143;DHT22;28750;59.842;17.584;2022-10-13T12:19:17;13.10;99.90
43143;DHT22;28750;59.842;17.584;2022-10-13T12:21:54;13.10;99.90
43143;DHT22;28750;59.842;17.584;2022-10-13T12:24:27;13.00;99.90
43143;DHT22;28750;59.842;17.584;2022-10-13T12:26:55;13.00;99.90
43143;DHT22;28750;59.842;17.584;2022-10-13T12:29:27;13.00;99.90
43143;DHT22;28750;59.842;17.584;2022-10-13T12:31:55;13.00;99.90
43143;DHT22;28750;59.842;17.584;2022-10-13T12:34:26;12.90;99.90
43143;DHT22;28750;59.842;17.584;2022-10-13T12:37:22;13.00;99.90
43143;DHT22;28750;59.842;17.584;2022-10-13T12:39:52;12.90;99.90
43143;DHT22;28750;59.842;17.584;2022-10-13T12:42:30;12.80;99.90
43143;DHT22;28750;59.842;17.584;2022-10-13T12:44:59;12.80;99.90
43143;DHT22;28750;59.842;17.584;2022-10-13T12:55:44;12.70;99.90
43143;DHT22;28750;59.842;17.584;2022-10-13T12:58:24;12.60;99.90
43143;DHT22;28750;59.842;17.584;2022-10-13T13:03:39;12.60;99.90
43143;DHT22;28750;59.842;17.584;2022-10-13T13:06:23;12.50;1.00
43143;DHT22;28750;59.842;17.584;2022-10-13T13:11:38;12.50;1.00
43143;DHT22;28750;59.842;17.584;2022-10-13T13:19:35;12.30;99.90
43143;DHT22;28750;59.842;17.584;2022-10-13T13:22:04;12.40;1.00
43143;DHT22;28750;59.842;17.584;2022-10-13T13:24:32;12.30;1.00
43143;DHT22;28750;59.842;17.584;2022-10-13T13:27:09;12.30;1.00
43143;DHT22;28750;59.842;17.584;2022-10-13T13:29:36;12.30;1.00
43143;DHT22;28750;59.842;17.584;2022-10-13T13:32:03;12.30;1.00
43143;DHT22;28750;59.842;17.584;2022-10-13T13:34:30;12.30;1.00
43143;DHT22;28750;59.842;17.584;2022-10-13T13:37:00;12.30;99.90
43143;DHT22;28750;59.842;17.584;2022-10-13T13:39:27;12.20;99.90
43143;DHT22;28750;59.842;17.584;2022-10-13T13:41:54;12.20;11.50
43143;DHT22;28750;59.842;17.584;2022-10-13T13:44:21;12.20;1.00
43143;DHT22;28750;59.842;17.584;2022-10-13T13:46:48;12.20;1.00
43143;DHT22;28750;59.842;17.584;2022-10-13T13:49:15;12.30;1.00
43143;DHT22;28750;59.842;17.584;2022-10-13T13:51:42;12.30;1.00
43143;DHT22;28750;59.842;17.584;2022-10-13T13:54:09;12.30;1.00
43143;DHT22;28750;59.842;17.584;2022-10-13T13:56:36;12.20;1.00
43143;DHT22;28750;59.842;17.584;2022-10-13T13:59:03;12.20;99.90
43143;DHT22;28750;59.842;17.584;2022-10-13T14:01:30;12.20;99.90
43143;DHT22;28750;59.842;17.584;2022-10-13T14:03:57;12.20;99.90
43143;DHT22;28750;59.842;17.584;2022-10-13T14:06:25;12.10;1.00
43143;DHT22;28750;59.842;17.584;2022-10-13T14:08:52;12.10;1.00
43143;DHT22;28750;59.842;17.584;2022-10-13T14:11:19;12.10;1.00
43143;DHT22;28750;59.842;17.584;2022-10-13T14:13:45;12.10;1.00
43143;DHT22;28750;59.842;17.584;2022-10-13T14:16:16;12.00;62.20
43143;DHT22;28750;59.842;17.584;2022-10-13T14:18:43;12.00;33.70
43143;DHT22;28750;59.842;17.584;2022-10-13T14:21:10;11.90;99.90
43143;DHT22;28750;59.842;17.584;2022-10-13T14:23:37;11.90;99.90
43143;DHT22;28750;59.842;17.584;2022-10-13T14:26:10;11.80;99.90
43143;DHT22;28750;59.842;17.584;2022-10-13T14:28:40;11.90;99.90
43143;DHT22;28750;59.842;17.584;2022-10-13T14:31:07;11.90;99.90
43143;DHT22;28750;59.842;17.584;2022-10-13T14:33:35;11.90;99.90
43143;DHT22;28750;59.842;17.584;2022-10-13T14:36:05;11.80;99.90
43143;DHT22;28750;59.842;17.584;2022-10-13T14:38:33;11.80;99.90
43143;DHT22;28750;59.842;17.584;2022-10-13T14:41:04;11.80;99.90
43143;DHT22;28750;59.842;17.584;2022-10-13T14:43:32;11.90;99.90
43143;DHT22;28750;59.842;17.584;2022-10-13T14:46:03;11.80;99.90
43143;DHT22;28750;59.842;17.584;2022-10-13T14:48:32;11.80;99.90
43143;DHT22;28750;59.842;17.584;2022-10-13T14:51:06;11.70;99.90
43143;DHT22;28750;59.842;17.584;2022-10-13T14:53:35;11.70;99.90
43143;DHT22;28750;59.842;17.584;2022-10-13T14:56:11;11.70;99.90
43143;DHT22;28750;59.842;17.584;2022-10-13T14:58:39;11.70;99.90
43143;DHT22;28750;59.842;17.584;2022-10-13T15:01:06;11.60;1.00
43143;DHT22;28750;59.842;17.584;2022-10-13T15:03:33;11.60;1.00
43143;DHT22;28750;59.842;17.584;2022-10-13T15:06:00;11.50;1.00
43143;DHT22;28750;59.842;17.584;2022-10-13T15:08:27;11.50;1.00
43143;DHT22;28750;59.842;17.584;2022-10-13T15:11:01;11.50;21.50
43143;DHT22;28750;59.842;17.584;2022-10-13T15:13:29;11.40;88.30
43143;DHT22;28750;59.842;17.584;2022-10-13T15:15:57;11.40;99.90
43143;DHT22;28750;59.842;17.584;2022-10-13T15:18:26;11.40;99.90
43143;DHT22;28750;59.842;17.584;2022-10-13T15:20:54;11.40;85.40
43143;DHT22;28750;59.842;17.584;2022-10-13T15:23:21;11.40;60.40
43143;DHT22;28750;59.842;17.584;2022-10-13T15:25:56;11.40;42.80
43143;DHT22;28750;59.842;17.584;2022-10-13T15:28:34;11.40;1.00
43143;DHT22;28750;59.842;17.584;2022-10-13T15:31:01;11.30;1.00
43143;DHT22;28750;59.842;17.584;2022-10-13T15:33:29;11.30;91.70
43143;DHT22;28750;59.842;17.584;2022-10-13T15:35:56;11.20;99.90
43143;DHT22;28750;59.842;17.584;2022-10-13T15:38:24;11.20;99.90
43143;DHT22;28750;59.842;17.584;2022-10-13T15:40:51;11.10;99.90
43143;DHT22;28750;59.842;17.584;2022-10-13T15:43:19;11.00;99.90
43143;DHT22;28750;59.842;17.584;2022-10-13T15:45:54;11.00;99.90
43143;DHT22;28750;59.842;17.584;2022-10-13T15:48:22;11.00;99.90
43143;DHT22;28750;59.842;17.584;2022-10-13T15:50:49;11.00;99.90
43143;DHT22;28750;59.842;17.584;2022-10-13T15:53:16;10.90;99.90
43143;DHT22;28750;59.842;17.584;2022-10-13T15:55:44;10.80;99.90
43143;DHT22;28750;59.842;17.584;2022-10-13T15:58:18;10.80;99.90
43143;DHT22;28750;59.842;17.584;2022-10-13T16:00:46;10.80;99.90
43143;DHT22;28750;59.842;17.584;2022-10-13T16:03:17;10.80;99.90
43143;DHT22;28750;59.842;17.584;2022-10-13T16:05:45;10.70;1.00
43143;DHT22;28750;59.842;17.584;2022-10-13T16:08:13;10.70;1.00
43143;DHT22;28750;59.842;17.584;2022-10-13T16:10:41;10.60;1.00
43143;DHT22;28750;59.842;17.584;2022-10-13T16:13:12;10.60;1.00
43143;DHT22;28750;59.842;17.584;2022-10-13T16:15:40;10.60;1.00
43143;DHT22;28750;59.842;17.584;2022-10-13T16:18:07;10.60;1.00
43143;DHT22;28750;59.842;17.584;2022-10-13T16:20:34;10.50;3.60
43143;DHT22;28750;59.842;17.584;2022-10-13T16:23:04;10.50;56.10
43143;DHT22;28750;59.842;17.584;2022-10-13T16:25:31;10.40;85.90
43143;DHT22;28750;59.842;17.584;2022-10-13T16:27:58;10.40;96.00
43143;DHT22;28750;59.842;17.584;2022-10-13T16:30:26;10.30;99.90
43143;DHT22;28750;59.842;17.584;2022-10-13T16:32:55;10.20;99.90
43143;DHT22;28750;59.842;17.584;2022-10-13T16:35:22;10.20;99.90
43143;DHT22;28750;59.842;17.584;2022-10-13T16:37:49;10.20;99.90
43143;DHT22;28750;59.842;17.584;2022-10-13T16:40:16;10.20;99.90
43143;DHT22;28750;59.842;17.584;2022-10-13T16:42:43;10.20;99.90
43143;DHT22;28750;59.842;17.584;2022-10-13T16:45:10;10.20;99.90
43143;DHT22;28750;59.842;17.584;2022-10-13T16:47:37;10.20;1.00
43143;DHT22;28750;59.842;17.584;2022-10-13T16:50:05;10.30;1.00
43143;DHT22;28750;59.842;17.584;2022-10-13T16:52:35;10.20;1.00
43143;DHT22;28750;59.842;17.584;2022-10-13T16:55:03;10.20;1.00
43143;DHT22;28750;59.842;17.584;2022-10-13T16:57:31;10.20;1.00
43143;DHT22;28750;59.842;17.584;2022-10-13T16:59:58;10.20;1.00
43143;DHT22;28750;59.842;17.584;2022-10-13T17:02:25;10.10;22.60
43143;DHT22;28750;59.842;17.584;2022-10-13T17:04:52;10.10;45.90
43143;DHT22;28750;59.842;17.584;2022-10-13T17:07:19;10.20;51.90
43143;DHT22;28750;59.842;17.584;2022-10-13T17:09:46;10.20;86.00
43143;DHT22;28750;59.842;17.584;2022-10-13T17:12:14;10.10;99.30
43143;DHT22;28750;59.842;17.584;2022-10-13T17:14:41;10.10;99.90
43143;DHT22;28750;59.842;17.584;2022-10-13T17:17:08;10.20;99.90
43143;DHT22;28750;59.842;17.584;2022-10-13T17:19:35;10.10;99.90
43143;DHT22;28750;59.842;17.584;2022-10-13T17:22:03;10.10;99.90
43143;DHT22;28750;59.842;17.584;2022-10-13T17:24:32;10.10;99.90
43143;DHT22;28750;59.842;17.584;2022-10-13T17:26:59;10.10;99.90
43143;DHT22;28750;59.842;17.584;2022-10-13T17:29:29;10.10;99.90
43143;DHT22;28750;59.842;17.584;2022-10-13T17:31:57;10.10;99.90
43143;DHT22;28750;59.842;17.584;2022-10-13T17:34:26;10.10;99.90
43143;DHT22;28750;59.842;17.584;2022-10-13T17:36:53;10.10;99.90
43143;DHT22;28750;59.842;17.584;2022-10-13T17:39:20;10.10;99.90
43143;DHT22;28750;59.842;17.584;2022-10-13T17:41:47;10.10;99.90